sensor_id;sensor_type;location;lat;lon;timestamp;P1;durP1;ratioP1;P2;durP2;ratioP2
12816;SDS011;6473;51.552;6.716;2023-08-30T00:01:36;8.70;;;7.90;;
12816;SDS011;6473;51.552;6.716;2023-08-30T00:04:03;8.73;;;7.93;;
12816;SDS011;6473;51.552;6.716;2023-08-30T00:06:30;9.65;;;8.65;;
12816;SDS011;6473;51.552;6.716;2023-08-30T00:08:57;11.18;;;9.38;;
12816;SDS011;6473;51.552;6.716;2023-08-30T00:11:24;10.75;;;9.75;;
12816;SDS011;6473;51.552;6.716;2023-08-30T00:13:51;10.00;;;9.10;;
12816;SDS011;6473;51.552;6.716;2023-08-30T00:16:19;10.00;;;8.95;;
12816;SDS011;6473;51.552;6.716;2023-08-30T00:18:46;10.55;;;9.43;;
12816;SDS011;6473;51.552;6.716;2023-08-30T00:21:13;10.63;;;9.63;;
12816;SDS011;6473;51.552;6.716;2023-08-30T00:23:41;10.18;;;9.25;;
12816;SDS011;6473;51.552;6.716;2023-08-30T00:26:08;11.50;;;10.43;;
12816;SDS011;6473;51.552;6.716;2023-08-30T00:28:35;12.10;;;10.80;;
12816;SDS011;6473;51.552;6.716;2023-08-30T00:31:02;11.85;;;10.65;;
12816;SDS011;6473;51.552;6.716;2023-08-30T00:33:30;10.90;;;9.80;;
12816;SDS011;6473;51.552;6.716;2023-08-30T00:35:57;10.88;;;9.75;;
12816;SDS011;6473;51.552;6.716;2023-08-30T00:38:25;11.95;;;10.30;;
12816;SDS011;6473;51.552;6.716;2023-08-30T00:40:52;11.60;;;10.27;;
12816;SDS011;6473;51.552;6.716;2023-08-30T00:43:19;9.23;;;8.32;;
12816;SDS011;6473;51.552;6.716;2023-08-30T00:45:47;10.48;;;9.32;;
12816;SDS011;6473;51.552;6.716;2023-08-30T00:48:15;9.30;;;8.45;;
12816;SDS011;6473;51.552;6.716;2023-08-30T00:50:45;9.40;;;8.40;;
12816;SDS011;6473;51.552;6.716;2023-08-30T00:53:12;9.50;;;8.70;;
12816;SDS011;6473;51.552;6.716;2023-08-30T00:55:41;9.85;;;8.95;;
12816;SDS011;6473;51.552;6.716;2023-08-30T00:58:09;10.80;;;9.18;;
12816;SDS011;6473;51.552;6.716;2023-08-30T01:00:36;11.48;;;10.38;;
12816;SDS011;6473;51.552;6.716;2023-08-30T01:03:04;12.68;;;11.38;;
12816;SDS011;6473;51.552;6.716;2023-08-30T01:05:32;12.35;;;11.07;;
12816;SDS011;6473;51.552;6.716;2023-08-30T01:08:00;12.23;;;11.02;;
12816;SDS011;6473;51.552;6.716;2023-08-30T01:10:31;11.60;;;10.50;;
12816;SDS011;6473;51.552;6.716;2023-08-30T01:13:08;13.73;;;11.02;;
12816;SDS011;6473;51.552;6.716;2023-08-30T01:15:38;12.35;;;11.15;;
12816;SDS011;6473;51.552;6.716;2023-08-30T01:18:07;11.63;;;10.52;;
12816;SDS011;6473;51.552;6.716;2023-08-30T01:20:35;13.20;;;11.18;;
12816;SDS011;6473;51.552;6.716;2023-08-30T01:23:06;12.88;;;11.00;;
12816;SDS011;6473;51.552;6.716;2023-08-30T01:25:43;11.63;;;10.43;;
12816;SDS011;6473;51.552;6.716;2023-08-30T01:28:16;10.85;;;9.75;;
12816;SDS011;6473;51.552;6.716;2023-08-30T01:30:47;10.40;;;9.40;;
12816;SDS011;6473;51.552;6.716;2023-08-30T01:33:15;11.45;;;9.75;;
12816;SDS011;6473;51.552;6.716;2023-08-30T01:35:44;10.00;;;9.10;;
12816;SDS011;6473;51.552;6.716;2023-08-30T01:38:11;11.05;;;9.95;;
12816;SDS011;6473;51.552;6.716;2023-08-30T01:40:41;11.73;;;10.52;;
12816;SDS011;6473;51.552;6.716;2023-08-30T01:43:09;12.27;;;10.95;;
12816;SDS011;6473;51.552;6.716;2023-08-30T01:45:39;11.50;;;10.50;;
12816;SDS011;6473;51.552;6.716;2023-08-30T01:48:08;13.50;;;12.05;;
12816;SDS011;6473;51.552;6.716;2023-08-30T01:50:38;12.88;;;11.02;;
12816;SDS011;6473;51.552;6.716;2023-08-30T01:53:08;14.85;;;13.00;;
12816;SDS011;6473;51.552;6.716;2023-08-30T01:55:37;14.05;;;12.57;;
12816;SDS011;6473;51.552;6.716;2023-08-30T01:58:05;16.13;;;13.77;;
12816;SDS011;6473;51.552;6.716;2023-08-30T02:00:32;17.10;;;12.57;;
12816;SDS011;6473;51.552;6.716;2023-08-30T02:03:07;17.88;;;14.98;;
12816;SDS011;6473;51.552;6.716;2023-08-30T02:05:35;15.98;;;13.13;;
12816;SDS011;6473;51.552;6.716;2023-08-30T02:08:09;16.40;;;14.85;;
12816;SDS011;6473;51.552;6.716;2023-08-30T02:10:41;17.40;;;14.43;;
12816;SDS011;6473;51.552;6.716;2023-08-30T02:13:16;17.45;;;15.48;;
12816;SDS011;6473;51.552;6.716;2023-08-30T02:15:46;16.35;;;13.88;;
12816;SDS011;6473;51.552;6.716;2023-08-30T02:18:16;17.15;;;15.30;;
12816;SDS011;6473;51.552;6.716;2023-08-30T02:20:43;18.15;;;14.65;;
12816;SDS011;6473;51.552;6.716;2023-08-30T02:23:10;16.35;;;14.65;;
12816;SDS011;6473;51.552;6.716;2023-08-30T02:25:36;16.05;;;14.35;;
12816;SDS011;6473;51.552;6.716;2023-08-30T02:28:04;15.93;;;14.43;;
12816;SDS011;6473;51.552;6.716;2023-08-30T02:30:32;16.52;;;14.20;;
12816;SDS011;6473;51.552;6.716;2023-08-30T02:32:59;18.38;;;14.98;;
12816;SDS011;6473;51.552;6.716;2023-08-30T02:35:27;16.30;;;14.60;;
12816;SDS011;6473;51.552;6.716;2023-08-30T02:37:54;16.75;;;15.05;;
12816;SDS011;6473;51.552;6.716;2023-08-30T02:40:21;16.67;;;14.93;;
12816;SDS011;6473;51.552;6.716;2023-08-30T02:42:48;16.88;;;15.18;;
12816;SDS011;6473;51.552;6.716;2023-08-30T02:45:15;16.40;;;14.60;;
12816;SDS011;6473;51.552;6.716;2023-08-30T02:47:41;16.05;;;14.52;;
12816;SDS011;6473;51.552;6.716;2023-08-30T02:50:10;16.08;;;14.43;;
12816;SDS011;6473;51.552;6.716;2023-08-30T02:52:38;15.63;;;14.05;;
12816;SDS011;6473;51.552;6.716;2023-08-30T02:55:05;16.08;;;14.32;;
12816;SDS011;6473;51.552;6.716;2023-08-30T02:57:33;14.98;;;13.40;;
12816;SDS011;6473;51.552;6.716;2023-08-30T03:00:00;15.45;;;13.85;;
12816;SDS011;6473;51.552;6.716;2023-08-30T03:02:31;14.75;;;13.27;;
12816;SDS011;6473;51.552;6.716;2023-08-30T03:04:58;15.02;;;13.45;;
12816;SDS011;6473;51.552;6.716;2023-08-30T03:07:25;19.23;;;14.60;;
12816;SDS011;6473;51.552;6.716;2023-08-30T03:09:56;14.35;;;12.95;;
12816;SDS011;6473;51.552;6.716;2023-08-30T03:12:23;15.73;;;14.23;;
12816;SDS011;6473;51.552;6.716;2023-08-30T03:14:50;15.70;;;13.75;;
12816;SDS011;6473;51.552;6.716;2023-08-30T03:17:17;15.52;;;13.93;;
12816;SDS011;6473;51.552;6.716;2023-08-30T03:19:44;17.73;;;14.52;;
12816;SDS011;6473;51.552;6.716;2023-08-30T03:22:12;16.60;;;14.93;;
12816;SDS011;6473;51.552;6.716;2023-08-30T03:24:39;17.90;;;15.93;;
12816;SDS011;6473;51.552;6.716;2023-08-30T03:27:07;18.45;;;15.52;;
12816;SDS011;6473;51.552;6.716;2023-08-30T03:29:34;16.60;;;14.88;;
12816;SDS011;6473;51.552;6.716;2023-08-30T03:32:01;15.85;;;14.25;;
12816;SDS011;6473;51.552;6.716;2023-08-30T03:34:28;16.42;;;13.35;;
12816;SDS011;6473;51.552;6.716;2023-08-30T03:36:55;15.30;;;12.52;;
12816;SDS011;6473;51.552;6.716;2023-08-30T03:39:22;15.38;;;13.40;;
12816;SDS011;6473;51.552;6.716;2023-08-30T03:41:49;14.63;;;13.30;;
12816;SDS011;6473;51.552;6.716;2023-08-30T03:44:17;15.93;;;13.77;;
12816;SDS011;6473;51.552;6.716;2023-08-30T03:46:45;14.57;;;13.18;;
12816;SDS011;6473;51.552;6.716;2023-08-30T03:49:12;16.10;;;13.30;;
12816;SDS011;6473;51.552;6.716;2023-08-30T03:51:39;15.52;;;12.82;;
12816;SDS011;6473;51.552;6.716;2023-08-30T03:54:06;14.38;;;12.80;;
12816;SDS011;6473;51.552;6.716;2023-08-30T03:56:33;15.25;;;13.65;;
12816;SDS011;6473;51.552;6.716;2023-08-30T03:59:01;15.00;;;13.43;;
12816;SDS011;6473;51.552;6.716;2023-08-30T04:01:29;15.45;;;13.85;;
12816;SDS011;6473;51.552;6.716;2023-08-30T04:03:56;15.02;;;13.52;;
12816;SDS011;6473;51.552;6.716;2023-08-30T04:06:25;15.10;;;13.65;;
12816;SDS011;6473;51.552;6.716;2023-08-30T04:08:52;15.25;;;13.68;;
12816;SDS011;6473;51.552;6.716;2023-08-30T04:11:19;15.60;;;13.98;;
12816;SDS011;6473;51.552;6.716;2023-08-30T04:13:46;16.05;;;14.35;;
12816;SDS011;6473;51.552;6.716;2023-08-30T04:16:13;15.70;;;14.10;;
12816;SDS011;6473;51.552;6.716;2023-08-30T04:18:41;15.90;;;14.27;;
12816;SDS011;6473;51.552;6.716;2023-08-30T04:21:08;15.85;;;14.00;;
12816;SDS011;6473;51.552;6.716;2023-08-30T04:23:35;18.88;;;14.98;;
12816;SDS011;6473;51.552;6.716;2023-08-30T04:26:01;16.27;;;14.55;;
12816;SDS011;6473;51.552;6.716;2023-08-30T04:28:28;15.13;;;13.52;;
12816;SDS011;6473;51.552;6.716;2023-08-30T04:30:55;16.88;;;14.15;;
12816;SDS011;6473;51.552;6.716;2023-08-30T04:33:22;16.60;;;14.75;;
12816;SDS011;6473;51.552;6.716;2023-08-30T04:35:51;16.13;;;14.38;;
12816;SDS011;6473;51.552;6.716;2023-08-30T04:38:18;15.80;;;14.02;;
12816;SDS011;6473;51.552;6.716;2023-08-30T04:40:46;16.10;;;14.43;;
12816;SDS011;6473;51.552;6.716;2023-08-30T04:43:15;15.77;;;14.10;;
12816;SDS011;6473;51.552;6.716;2023-08-30T04:45:42;17.38;;;15.10;;
12816;SDS011;6473;51.552;6.716;2023-08-30T04:48:09;18.70;;;14.38;;
12816;SDS011;6473;51.552;6.716;2023-08-30T04:50:36;15.82;;;14.13;;
12816;SDS011;6473;51.552;6.716;2023-08-30T04:53:05;15.80;;;14.10;;
12816;SDS011;6473;51.552;6.716;2023-08-30T04:55:31;16.40;;;14.77;;
12816;SDS011;6473;51.552;6.716;2023-08-30T04:57:58;18.00;;;15.35;;
12816;SDS011;6473;51.552;6.716;2023-08-30T05:00:30;17.05;;;14.77;;
12816;SDS011;6473;51.552;6.716;2023-08-30T05:02:57;18.50;;;15.18;;
12816;SDS011;6473;51.552;6.716;2023-08-30T05:05:26;17.33;;;15.20;;
12816;SDS011;6473;51.552;6.716;2023-08-30T05:07:55;20.63;;;16.17;;
12816;SDS011;6473;51.552;6.716;2023-08-30T05:10:23;20.30;;;16.98;;
12816;SDS011;6473;51.552;6.716;2023-08-30T05:12:50;21.02;;;17.02;;
12816;SDS011;6473;51.552;6.716;2023-08-30T05:15:17;20.75;;;17.70;;
12816;SDS011;6473;51.552;6.716;2023-08-30T05:17:45;24.00;;;18.08;;
12816;SDS011;6473;51.552;6.716;2023-08-30T05:20:12;23.88;;;19.08;;
12816;SDS011;6473;51.552;6.716;2023-08-30T05:22:39;23.05;;;19.42;;
12816;SDS011;6473;51.552;6.716;2023-08-30T05:25:06;24.25;;;20.00;;
12816;SDS011;6473;51.552;6.716;2023-08-30T05:27:35;23.80;;;19.95;;
12816;SDS011;6473;51.552;6.716;2023-08-30T05:30:02;22.38;;;19.77;;
12816;SDS011;6473;51.552;6.716;2023-08-30T05:32:29;26.60;;;20.88;;
12816;SDS011;6473;51.552;6.716;2023-08-30T05:35:28;24.15;;;20.15;;
12816;SDS011;6473;51.552;6.716;2023-08-30T05:38:14;26.25;;;21.42;;
12816;SDS011;6473;51.552;6.716;2023-08-30T05:41:01;28.00;;;20.95;;
12816;SDS011;6473;51.552;6.716;2023-08-30T05:43:31;23.80;;;19.98;;
12816;SDS011;6473;51.552;6.716;2023-08-30T05:45:58;24.13;;;20.67;;
12816;SDS011;6473;51.552;6.716;2023-08-30T05:48:27;22.48;;;20.02;;
12816;SDS011;6473;51.552;6.716;2023-08-30T05:50:54;27.73;;;21.45;;
12816;SDS011;6473;51.552;6.716;2023-08-30T05:53:22;22.60;;;19.08;;
12816;SDS011;6473;51.552;6.716;2023-08-30T05:55:49;23.33;;;19.88;;
12816;SDS011;6473;51.552;6.716;2023-08-30T05:58:16;25.23;;;19.42;;
12816;SDS011;6473;51.552;6.716;2023-08-30T06:00:46;24.27;;;19.08;;
12816;SDS011;6473;51.552;6.716;2023-08-30T06:03:13;21.75;;;19.08;;
12816;SDS011;6473;51.552;6.716;2023-08-30T06:05:39;22.58;;;18.15;;
12816;SDS011;6473;51.552;6.716;2023-08-30T06:08:08;22.92;;;17.88;;
12816;SDS011;6473;51.552;6.716;2023-08-30T06:10:35;22.75;;;18.67;;
12816;SDS011;6473;51.552;6.716;2023-08-30T06:13:04;21.70;;;18.10;;
12816;SDS011;6473;51.552;6.716;2023-08-30T06:15:30;21.63;;;17.92;;
12816;SDS011;6473;51.552;6.716;2023-08-30T06:17:59;23.95;;;18.50;;
12816;SDS011;6473;51.552;6.716;2023-08-30T06:20:26;18.88;;;16.80;;
12816;SDS011;6473;51.552;6.716;2023-08-30T06:22:53;20.60;;;17.77;;
12816;SDS011;6473;51.552;6.716;2023-08-30T06:25:20;20.30;;;17.13;;
12816;SDS011;6473;51.552;6.716;2023-08-30T06:27:54;19.88;;;16.48;;
12816;SDS011;6473;51.552;6.716;2023-08-30T06:30:22;20.15;;;16.77;;
12816;SDS011;6473;51.552;6.716;2023-08-30T06:32:49;19.52;;;14.80;;
12816;SDS011;6473;51.552;6.716;2023-08-30T06:35:17;17.55;;;14.68;;
12816;SDS011;6473;51.552;6.716;2023-08-30T06:37:44;19.45;;;14.40;;
12816;SDS011;6473;51.552;6.716;2023-08-30T06:40:11;16.85;;;14.48;;
12816;SDS011;6473;51.552;6.716;2023-08-30T06:42:38;19.77;;;14.70;;
12816;SDS011;6473;51.552;6.716;2023-08-30T06:45:05;16.13;;;13.18;;
12816;SDS011;6473;51.552;6.716;2023-08-30T06:47:32;15.55;;;13.52;;
12816;SDS011;6473;51.552;6.716;2023-08-30T06:50:00;18.13;;;15.15;;
12816;SDS011;6473;51.552;6.716;2023-08-30T06:52:30;18.45;;;14.60;;
12816;SDS011;6473;51.552;6.716;2023-08-30T06:54:57;15.10;;;13.55;;
12816;SDS011;6473;51.552;6.716;2023-08-30T06:57:24;15.82;;;13.07;;
12816;SDS011;6473;51.552;6.716;2023-08-30T06:59:50;17.23;;;13.40;;
12816;SDS011;6473;51.552;6.716;2023-08-30T07:02:17;15.45;;;13.05;;
12816;SDS011;6473;51.552;6.716;2023-08-30T07:04:44;16.90;;;13.20;;
12816;SDS011;6473;51.552;6.716;2023-08-30T07:07:11;16.83;;;12.55;;
12816;SDS011;6473;51.552;6.716;2023-08-30T07:09:40;14.50;;;12.77;;
12816;SDS011;6473;51.552;6.716;2023-08-30T07:12:07;14.25;;;12.05;;
12816;SDS011;6473;51.552;6.716;2023-08-30T07:14:34;14.77;;;12.57;;
12816;SDS011;6473;51.552;6.716;2023-08-30T07:17:02;17.95;;;12.02;;
12816;SDS011;6473;51.552;6.716;2023-08-30T07:19:29;13.35;;;11.73;;
12816;SDS011;6473;51.552;6.716;2023-08-30T07:21:55;14.85;;;11.45;;
12816;SDS011;6473;51.552;6.716;2023-08-30T07:24:22;13.45;;;11.40;;
12816;SDS011;6473;51.552;6.716;2023-08-30T07:26:50;12.65;;;10.45;;
12816;SDS011;6473;51.552;6.716;2023-08-30T07:29:17;12.45;;;10.27;;
12816;SDS011;6473;51.552;6.716;2023-08-30T07:31:44;12.90;;;9.93;;
12816;SDS011;6473;51.552;6.716;2023-08-30T07:34:11;11.18;;;8.70;;
12816;SDS011;6473;51.552;6.716;2023-08-30T07:36:38;10.07;;;9.18;;
12816;SDS011;6473;51.552;6.716;2023-08-30T07:39:05;11.27;;;9.73;;
12816;SDS011;6473;51.552;6.716;2023-08-30T07:41:33;11.57;;;9.52;;
12816;SDS011;6473;51.552;6.716;2023-08-30T07:44:01;11.43;;;9.35;;
12816;SDS011;6473;51.552;6.716;2023-08-30T07:46:28;13.07;;;9.15;;
12816;SDS011;6473;51.552;6.716;2023-08-30T07:48:55;9.55;;;8.55;;
12816;SDS011;6473;51.552;6.716;2023-08-30T07:51:22;9.55;;;8.57;;
12816;SDS011;6473;51.552;6.716;2023-08-30T07:53:49;10.00;;;8.82;;
12816;SDS011;6473;51.552;6.716;2023-08-30T07:56:17;9.30;;;8.35;;
12816;SDS011;6473;51.552;6.716;2023-08-30T07:58:43;8.07;;;7.25;;
12816;SDS011;6473;51.552;6.716;2023-08-30T08:01:11;7.95;;;7.13;;
12816;SDS011;6473;51.552;6.716;2023-08-30T08:03:38;8.10;;;7.15;;
12816;SDS011;6473;51.552;6.716;2023-08-30T08:06:06;7.38;;;6.18;;
12816;SDS011;6473;51.552;6.716;2023-08-30T08:08:33;8.48;;;5.93;;
12816;SDS011;6473;51.552;6.716;2023-08-30T08:10:59;7.20;;;6.05;;
12816;SDS011;6473;51.552;6.716;2023-08-30T08:13:26;8.50;;;5.60;;
12816;SDS011;6473;51.552;6.716;2023-08-30T08:15:55;6.70;;;5.55;;
12816;SDS011;6473;51.552;6.716;2023-08-30T08:18:23;5.90;;;4.55;;
12816;SDS011;6473;51.552;6.716;2023-08-30T08:20:50;4.93;;;4.43;;
12816;SDS011;6473;51.552;6.716;2023-08-30T08:23:17;5.20;;;4.03;;
12816;SDS011;6473;51.552;6.716;2023-08-30T08:25:44;4.78;;;4.28;;
12816;SDS011;6473;51.552;6.716;2023-08-30T08:28:11;5.05;;;4.55;;
12816;SDS011;6473;51.552;6.716;2023-08-30T08:30:38;6.05;;;4.63;;
12816;SDS011;6473;51.552;6.716;2023-08-30T08:33:05;6.30;;;4.75;;
12816;SDS011;6473;51.552;6.716;2023-08-30T08:35:33;4.78;;;4.20;;
12816;SDS011;6473;51.552;6.716;2023-08-30T08:37:59;7.40;;;5.13;;
12816;SDS011;6473;51.552;6.716;2023-08-30T08:40:26;6.88;;;5.28;;
12816;SDS011;6473;51.552;6.716;2023-08-30T08:42:54;5.30;;;4.80;;
12816;SDS011;6473;51.552;6.716;2023-08-30T08:45:22;7.00;;;4.90;;
12816;SDS011;6473;51.552;6.716;2023-08-30T08:47:49;5.47;;;4.85;;
12816;SDS011;6473;51.552;6.716;2023-08-30T08:50:18;6.65;;;4.90;;
12816;SDS011;6473;51.552;6.716;2023-08-30T08:52:46;5.47;;;4.97;;
12816;SDS011;6473;51.552;6.716;2023-08-30T08:55:14;6.05;;;5.25;;
12816;SDS011;6473;51.552;6.716;2023-08-30T08:57:41;6.93;;;6.15;;
12816;SDS011;6473;51.552;6.716;2023-08-30T09:00:10;6.65;;;5.80;;
12816;SDS011;6473;51.552;6.716;2023-08-30T09:02:38;7.97;;;6.38;;
12816;SDS011;6473;51.552;6.716;2023-08-30T09:05:07;7.93;;;5.55;;
12816;SDS011;6473;51.552;6.716;2023-08-30T09:07:35;6.03;;;5.43;;
12816;SDS011;6473;51.552;6.716;2023-08-30T09:10:04;7.65;;;5.28;;
12816;SDS011;6473;51.552;6.716;2023-08-30T09:12:32;6.40;;;5.53;;
12816;SDS011;6473;51.552;6.716;2023-08-30T09:14:59;5.82;;;5.22;;
12816;SDS011;6473;51.552;6.716;2023-08-30T09:17:35;6.88;;;5.75;;
12816;SDS011;6473;51.552;6.716;2023-08-30T09:20:07;6.43;;;5.78;;
12816;SDS011;6473;51.552;6.716;2023-08-30T09:22:36;8.45;;;5.57;;
12816;SDS011;6473;51.552;6.716;2023-08-30T09:25:04;7.70;;;6.78;;
12816;SDS011;6473;51.552;6.716;2023-08-30T09:27:32;8.05;;;7.00;;
12816;SDS011;6473;51.552;6.716;2023-08-30T09:29:59;7.10;;;6.50;;
12816;SDS011;6473;51.552;6.716;2023-08-30T09:32:26;9.02;;;8.10;;
12816;SDS011;6473;51.552;6.716;2023-08-30T09:34:53;9.43;;;7.80;;
12816;SDS011;6473;51.552;6.716;2023-08-30T09:37:20;8.88;;;7.70;;
12816;SDS011;6473;51.552;6.716;2023-08-30T09:39:50;8.60;;;7.65;;
12816;SDS011;6473;51.552;6.716;2023-08-30T09:42:19;8.82;;;8.02;;
12816;SDS011;6473;51.552;6.716;2023-08-30T09:44:47;9.07;;;8.18;;
12816;SDS011;6473;51.552;6.716;2023-08-30T09:47:14;9.43;;;8.50;;
12816;SDS011;6473;51.552;6.716;2023-08-30T09:49:42;14.02;;;9.00;;
12816;SDS011;6473;51.552;6.716;2023-08-30T09:52:12;10.02;;;9.07;;
12816;SDS011;6473;51.552;6.716;2023-08-30T09:54:41;10.50;;;9.40;;
12816;SDS011;6473;51.552;6.716;2023-08-30T09:57:09;9.55;;;8.55;;
12816;SDS011;6473;51.552;6.716;2023-08-30T09:59:38;9.25;;;8.30;;
12816;SDS011;6473;51.552;6.716;2023-08-30T10:02:05;10.25;;;9.05;;
12816;SDS011;6473;51.552;6.716;2023-08-30T10:04:35;9.65;;;8.25;;
12816;SDS011;6473;51.552;6.716;2023-08-30T10:07:04;8.65;;;7.72;;
12816;SDS011;6473;51.552;6.716;2023-08-30T10:09:33;8.85;;;7.95;;
12816;SDS011;6473;51.552;6.716;2023-08-30T10:12:00;8.85;;;8.05;;
12816;SDS011;6473;51.552;6.716;2023-08-30T10:14:29;9.20;;;7.82;;
12816;SDS011;6473;51.552;6.716;2023-08-30T10:16:59;9.48;;;8.15;;
12816;SDS011;6473;51.552;6.716;2023-08-30T10:19:29;10.75;;;9.27;;
12816;SDS011;6473;51.552;6.716;2023-08-30T10:22:00;10.50;;;9.20;;
12816;SDS011;6473;51.552;6.716;2023-08-30T10:24:29;9.50;;;8.60;;
12816;SDS011;6473;51.552;6.716;2023-08-30T10:26:59;10.63;;;9.05;;
12816;SDS011;6473;51.552;6.716;2023-08-30T10:29:29;9.73;;;8.75;;
12816;SDS011;6473;51.552;6.716;2023-08-30T10:32:02;10.60;;;9.50;;
12816;SDS011;6473;51.552;6.716;2023-08-30T10:34:31;10.68;;;9.68;;
12816;SDS011;6473;51.552;6.716;2023-08-30T10:36:59;10.07;;;9.07;;
12816;SDS011;6473;51.552;6.716;2023-08-30T10:39:32;10.25;;;9.25;;
12816;SDS011;6473;51.552;6.716;2023-08-30T10:42:06;10.50;;;9.40;;
12816;SDS011;6473;51.552;6.716;2023-08-30T10:44:35;10.25;;;8.88;;
12816;SDS011;6473;51.552;6.716;2023-08-30T10:47:19;10.68;;;9.55;;
12816;SDS011;6473;51.552;6.716;2023-08-30T10:49:48;10.57;;;9.57;;
12816;SDS011;6473;51.552;6.716;2023-08-30T10:52:16;10.40;;;9.30;;
12816;SDS011;6473;51.552;6.716;2023-08-30T10:54:42;9.95;;;8.95;;
12816;SDS011;6473;51.552;6.716;2023-08-30T10:57:13;10.13;;;9.13;;
12816;SDS011;6473;51.552;6.716;2023-08-30T11:00:03;9.52;;;8.65;;
12816;SDS011;6473;51.552;6.716;2023-08-30T11:02:33;10.07;;;9.07;;
12816;SDS011;6473;51.552;6.716;2023-08-30T11:05:01;9.45;;;8.55;;
12816;SDS011;6473;51.552;6.716;2023-08-30T11:07:29;10.35;;;9.25;;
12816;SDS011;6473;51.552;6.716;2023-08-30T11:09:57;9.02;;;8.23;;
12816;SDS011;6473;51.552;6.716;2023-08-30T11:12:24;9.23;;;8.32;;
12816;SDS011;6473;51.552;6.716;2023-08-30T11:14:52;9.27;;;7.80;;
12816;SDS011;6473;51.552;6.716;2023-08-30T11:17:19;9.15;;;7.68;;
12816;SDS011;6473;51.552;6.716;2023-08-30T11:19:49;7.65;;;6.80;;
12816;SDS011;6473;51.552;6.716;2023-08-30T11:22:16;9.25;;;7.60;;
12816;SDS011;6473;51.552;6.716;2023-08-30T11:24:45;9.43;;;8.45;;
12816;SDS011;6473;51.552;6.716;2023-08-30T11:27:15;8.65;;;6.93;;
12816;SDS011;6473;51.552;6.716;2023-08-30T11:29:43;8.27;;;7.40;;
12816;SDS011;6473;51.552;6.716;2023-08-30T11:32:10;8.00;;;7.20;;
12816;SDS011;6473;51.552;6.716;2023-08-30T11:34:37;7.85;;;7.15;;
12816;SDS011;6473;51.552;6.716;2023-08-30T11:37:05;7.70;;;6.85;;
12816;SDS011;6473;51.552;6.716;2023-08-30T11:39:33;7.75;;;7.05;;
12816;SDS011;6473;51.552;6.716;2023-08-30T11:42:02;8.50;;;7.68;;
12816;SDS011;6473;51.552;6.716;2023-08-30T11:44:31;8.57;;;7.32;;
12816;SDS011;6473;51.552;6.716;2023-08-30T11:46:58;8.02;;;6.80;;
12816;SDS011;6473;51.552;6.716;2023-08-30T11:49:25;8.07;;;7.20;;
12816;SDS011;6473;51.552;6.716;2023-08-30T11:51:53;9.32;;;7.25;;
12816;SDS011;6473;51.552;6.716;2023-08-30T11:54:23;7.93;;;7.13;;
12816;SDS011;6473;51.552;6.716;2023-08-30T11:56:50;7.43;;;6.45;;
12816;SDS011;6473;51.552;6.716;2023-08-30T11:59:17;7.47;;;6.68;;
12816;SDS011;6473;51.552;6.716;2023-08-30T12:01:45;7.82;;;7.03;;
12816;SDS011;6473;51.552;6.716;2023-08-30T12:04:12;7.18;;;6.47;;
12816;SDS011;6473;51.552;6.716;2023-08-30T12:06:39;7.47;;;6.78;;
12816;SDS011;6473;51.552;6.716;2023-08-30T12:09:11;7.93;;;7.20;;
12816;SDS011;6473;51.552;6.716;2023-08-30T12:11:39;7.15;;;6.50;;
12816;SDS011;6473;51.552;6.716;2023-08-30T12:14:06;6.93;;;6.22;;
12816;SDS011;6473;51.552;6.716;2023-08-30T12:16:33;7.60;;;6.95;;
12816;SDS011;6473;51.552;6.716;2023-08-30T12:19:09;7.18;;;6.57;;
12816;SDS011;6473;51.552;6.716;2023-08-30T12:21:40;7.82;;;7.03;;
12816;SDS011;6473;51.552;6.716;2023-08-30T12:24:08;7.50;;;6.80;;
12816;SDS011;6473;51.552;6.716;2023-08-30T12:26:34;7.20;;;6.60;;
12816;SDS011;6473;51.552;6.716;2023-08-30T12:29:05;7.28;;;6.68;;
12816;SDS011;6473;51.552;6.716;2023-08-30T12:31:32;7.75;;;6.70;;
12816;SDS011;6473;51.552;6.716;2023-08-30T12:33:59;7.60;;;6.90;;
12816;SDS011;6473;51.552;6.716;2023-08-30T12:36:26;8.50;;;7.70;;
12816;SDS011;6473;51.552;6.716;2023-08-30T12:38:53;7.82;;;7.13;;
12816;SDS011;6473;51.552;6.716;2023-08-30T12:41:19;8.07;;;7.38;;
12816;SDS011;6473;51.552;6.716;2023-08-30T12:43:48;8.73;;;7.90;;
12816;SDS011;6473;51.552;6.716;2023-08-30T12:46:17;9.23;;;8.43;;
12816;SDS011;6473;51.552;6.716;2023-08-30T12:48:44;8.48;;;7.72;;
12816;SDS011;6473;51.552;6.716;2023-08-30T12:51:11;9.65;;;8.75;;
12816;SDS011;6473;51.552;6.716;2023-08-30T12:53:39;8.43;;;7.72;;
12816;SDS011;6473;51.552;6.716;2023-08-30T12:56:06;9.50;;;8.70;;
12816;SDS011;6473;51.552;6.716;2023-08-30T12:58:33;9.25;;;8.35;;
12816;SDS011;6473;51.552;6.716;2023-08-30T13:01:00;9.23;;;8.20;;
12816;SDS011;6473;51.552;6.716;2023-08-30T13:03:28;9.43;;;8.55;;
12816;SDS011;6473;51.552;6.716;2023-08-30T13:05:55;9.60;;;8.70;;
12816;SDS011;6473;51.552;6.716;2023-08-30T13:08:23;9.88;;;9.00;;
12816;SDS011;6473;51.552;6.716;2023-08-30T13:10:50;12.02;;;9.95;;
12816;SDS011;6473;51.552;6.716;2023-08-30T13:13:17;9.18;;;8.27;;
12816;SDS011;6473;51.552;6.716;2023-08-30T13:15:46;9.85;;;8.80;;
12816;SDS011;6473;51.552;6.716;2023-08-30T13:18:13;8.43;;;7.60;;
12816;SDS011;6473;51.552;6.716;2023-08-30T13:20:42;8.13;;;7.43;;
12816;SDS011;6473;51.552;6.716;2023-08-30T13:23:09;8.13;;;7.40;;
12816;SDS011;6473;51.552;6.716;2023-08-30T13:25:38;7.57;;;6.88;;
12816;SDS011;6473;51.552;6.716;2023-08-30T13:28:05;7.35;;;6.65;;
12816;SDS011;6473;51.552;6.716;2023-08-30T13:30:32;10.23;;;5.95;;
12816;SDS011;6473;51.552;6.716;2023-08-30T13:32:59;6.28;;;5.72;;
12816;SDS011;6473;51.552;6.716;2023-08-30T13:35:26;6.68;;;5.93;;
12816;SDS011;6473;51.552;6.716;2023-08-30T13:37:54;6.53;;;5.93;;
12816;SDS011;6473;51.552;6.716;2023-08-30T13:40:21;6.72;;;6.18;;
12816;SDS011;6473;51.552;6.716;2023-08-30T13:42:47;6.15;;;5.65;;
12816;SDS011;6473;51.552;6.716;2023-08-30T13:45:14;6.55;;;6.05;;
12816;SDS011;6473;51.552;6.716;2023-08-30T13:47:42;6.85;;;6.18;;
12816;SDS011;6473;51.552;6.716;2023-08-30T13:50:10;6.80;;;6.22;;
12816;SDS011;6473;51.552;6.716;2023-08-30T13:52:36;7.00;;;6.40;;
12816;SDS011;6473;51.552;6.716;2023-08-30T13:55:05;7.55;;;6.90;;
12816;SDS011;6473;51.552;6.716;2023-08-30T13:57:32;7.68;;;6.97;;
12816;SDS011;6473;51.552;6.716;2023-08-30T13:59:59;7.85;;;6.15;;
12816;SDS011;6473;51.552;6.716;2023-08-30T14:02:29;7.07;;;6.47;;
12816;SDS011;6473;51.552;6.716;2023-08-30T14:04:57;7.00;;;6.30;;
12816;SDS011;6473;51.552;6.716;2023-08-30T14:07:24;6.18;;;5.55;;
12816;SDS011;6473;51.552;6.716;2023-08-30T14:09:51;7.07;;;6.38;;
12816;SDS011;6473;51.552;6.716;2023-08-30T14:12:19;7.32;;;6.63;;
12816;SDS011;6473;51.552;6.716;2023-08-30T14:14:46;6.65;;;6.13;;
12816;SDS011;6473;51.552;6.716;2023-08-30T14:17:13;6.80;;;6.20;;
12816;SDS011;6473;51.552;6.716;2023-08-30T14:19:40;6.80;;;6.20;;
12816;SDS011;6473;51.552;6.716;2023-08-30T14:22:07;6.55;;;5.95;;
12816;SDS011;6473;51.552;6.716;2023-08-30T14:24:33;7.28;;;6.68;;
12816;SDS011;6473;51.552;6.716;2023-08-30T14:27:00;7.35;;;6.47;;
12816;SDS011;6473;51.552;6.716;2023-08-30T14:29:29;6.75;;;6.15;;
12816;SDS011;6473;51.552;6.716;2023-08-30T14:31:55;7.10;;;6.40;;
12816;SDS011;6473;51.552;6.716;2023-08-30T14:34:22;6.75;;;6.13;;
12816;SDS011;6473;51.552;6.716;2023-08-30T14:36:49;6.65;;;5.63;;
12816;SDS011;6473;51.552;6.716;2023-08-30T14:39:16;7.05;;;5.97;;
12816;SDS011;6473;51.552;6.716;2023-08-30T14:41:43;7.38;;;6.55;;
12816;SDS011;6473;51.552;6.716;2023-08-30T14:44:10;7.25;;;6.55;;
12816;SDS011;6473;51.552;6.716;2023-08-30T14:46:38;6.97;;;6.30;;
12816;SDS011;6473;51.552;6.716;2023-08-30T14:49:05;7.25;;;6.55;;
12816;SDS011;6473;51.552;6.716;2023-08-30T14:51:32;7.55;;;6.85;;
12816;SDS011;6473;51.552;6.716;2023-08-30T14:53:59;7.65;;;7.00;;